Time;durP1;ratioP1;P1;durP2;ratioP2;P2;SDS_P1;SDS_P2;PMS_P1;PMS_P2;Temp;Humidity;BMP_temperature;BMP_pressure;BME280_temperature;BME280_humidity;BME280_pressure;Samples;Min_cycle;Max_cycle;Signal;HPM_P1;HPM_P2
2022/01/10 00:00:10;;;;;;;16.45;8.50;;;3.00;99.90;;;;;;4983267;28;88079;-40
2022/01/10 00:02:35;;;;;;;16.02;7.03;;;3.00;99.90;;;;;;4983492;28;90008;-33
2022/01/10 00:05:01;;;;;;;17.02;7.90;;;3.00;99.90;;;;;;4983712;28;89815;-36
2022/01/10 00:07:26;;;;;;;14.15;7.90;;;3.00;99.90;;;;;;4982978;28;88474;-37
2022/01/10 00:09:52;;;;;;;16.27;8.57;;;2.90;99.90;;;;;;4983477;28;89441;-37
2022/01/10 00:12:18;;;;;;;27.92;9.15;;;2.90;99.90;;;;;;4982337;28;89857;-39
2022/01/10 00:14:43;;;;;;;16.10;7.78;;;2.90;99.90;;;;;;4983652;28;89751;-37
2022/01/10 00:17:09;;;;;;;19.17;8.80;;;2.90;99.90;;;;;;4983359;28;87716;-37
2022/01/10 00:19:34;;;;;;;11.80;7.45;;;2.90;99.90;;;;;;4982747;28;89903;-34
2022/01/10 00:22:00;;;;;;;18.13;7.78;;;2.80;99.90;;;;;;4983011;28;90343;-39
2022/01/10 00:24:25;;;;;;;22.38;8.48;;;2.80;99.90;;;;;;4982321;28;89565;-35
2022/01/10 00:26:51;;;;;;;15.90;7.43;;;2.80;99.90;;;;;;4983650;28;87859;-39
2022/01/10 00:29:17;;;;;;;19.65;8.07;;;2.70;99.90;;;;;;4982792;28;88176;-40
2022/01/10 00:31:42;;;;;;;18.60;8.25;;;2.70;99.90;;;;;;4982651;28;90265;-36
2022/01/10 00:34:09;;;;;;;15.10;7.95;;;2.70;99.90;;;;;;4985166;28;90099;-40
2022/01/10 00:36:35;;;;;;;16.40;7.95;;;2.60;99.90;;;;;;4984038;28;88278;-38
2022/01/10 00:39:01;;;;;;;20.02;9.20;;;2.60;99.90;;;;;;4983535;28;89402;-42
2022/01/10 00:41:26;;;;;;;22.02;8.23;;;2.60;99.90;;;;;;4982367;28;90765;-39
2022/01/10 00:43:52;;;;;;;15.63;8.68;;;2.60;99.90;;;;;;4982727;28;89864;-39
2022/01/10 00:46:18;;;;;;;22.52;9.63;;;2.60;99.90;;;;;;4982426;28;88438;-38
2022/01/10 00:48:44;;;;;;;20.48;9.13;;;2.50;99.90;;;;;;4982536;28;89940;-39
2022/01/10 00:51:10;;;;;;;18.35;7.85;;;2.50;99.90;;;;;;4983020;28;90000;-42
2022/01/10 00:53:36;;;;;;;16.67;8.82;;;2.50;99.90;;;;;;4981261;28;89472;-41
2022/01/10 00:56:02;;;;;;;15.05;8.77;;;2.50;99.90;;;;;;4983607;28;88143;-40
2022/01/10 00:58:28;;;;;;;25.13;8.82;;;2.40;99.90;;;;;;4980669;28;88524;-36
2022/01/10 01:00:53;;;;;;;23.15;9.80;;;2.40;99.90;;;;;;4982066;28;90193;-38
2022/01/10 01:03:19;;;;;;;18.02;8.15;;;2.40;99.90;;;;;;4982491;28;89934;-41
2022/01/10 01:05:45;;;;;;;15.90;7.70;;;2.40;99.90;;;;;;4982907;28;88948;-42
2022/01/10 01:08:13;;;;;;;24.73;8.48;;;2.40;99.90;;;;;;4982844;28;89712;-37
2022/01/10 01:13:28;;;;;;;13.60;9.30;;;2.30;99.90;;;;;;4981161;28;89485;-37
2022/01/10 01:24:05;;;;;;;17.27;8.48;;;2.20;99.90;;;;;;4981901;28;89999;-36
2022/01/10 01:26:44;;;;;;;18.73;9.50;;;2.20;99.90;;;;;;4981960;28;88880;-35
2022/01/10 01:29:12;;;;;;;18.27;10.15;;;2.20;99.90;;;;;;4982593;28;89666;-41
2022/01/10 01:31:38;;;;;;;24.20;9.82;;;2.20;99.90;;;;;;4980861;28;89587;-41
2022/01/10 01:34:04;;;;;;;17.42;10.05;;;2.20;99.90;;;;;;4981260;28;89685;-39
2022/01/10 01:36:32;;;;;;;16.48;8.90;;;2.20;99.90;;;;;;4981722;28;89703;-35
2022/01/10 01:38:58;;;;;;;15.40;9.68;;;2.10;99.90;;;;;;4981574;28;88354;-36
2022/01/10 01:43:53;;;;;;;;;;;2.10;99.90;;;;;;4981771;28;89775;-43
2022/01/10 01:46:19;;;;;;;24.13;10.95;;;2.10;99.90;;;;;;4983105;28;88445;-36
2022/01/10 01:48:45;;;;;;;14.23;8.82;;;2.10;99.90;;;;;;4980458;28;87661;-37
2022/01/10 01:51:11;;;;;;;26.58;10.65;;;2.10;99.90;;;;;;4981580;28;90067;-39
2022/01/10 01:53:37;;;;;;;19.58;10.13;;;2.00;99.90;;;;;;4980664;28;89885;-40
2022/01/10 01:56:07;;;;;;;20.80;10.50;;;2.00;99.90;;;;;;4981016;28;87593;-35
2022/01/10 01:58:35;;;;;;;17.63;10.43;;;2.00;99.90;;;;;;4979857;28;89704;-45
2022/01/10 02:01:01;;;;;;;;;;;2.00;99.90;;;;;;4981113;28;90357;-42
2022/01/10 02:03:26;;;;;;;15.00;10.73;;;2.00;99.90;;;;;;4982260;28;89428;-38
2022/01/10 02:05:52;;;;;;;23.23;11.10;;;1.90;99.90;;;;;;4980449;28;89928;-43
2022/01/10 02:08:18;;;;;;;26.95;10.98;;;1.90;99.90;;;;;;4980794;28;88460;-40
2022/01/10 02:10:44;;;;;;;15.77;10.82;;;1.80;99.90;;;;;;4979781;28;90082;-39
2022/01/10 02:13:09;;;;;;;27.00;11.18;;;1.80;99.90;;;;;;4980381;28;89726;-40
2022/01/10 02:15:58;;;;;;;20.83;9.93;;;1.80;99.90;;;;;;4979996;28;89305;-38
2022/01/10 02:18:24;;;;;;;21.77;10.90;;;1.80;99.90;;;;;;4981136;28;87613;-40
2022/01/10 02:20:50;;;;;;;17.85;10.20;;;1.80;99.90;;;;;;4980328;28;90182;-38
2022/01/10 02:23:16;;;;;;;19.17;12.27;;;1.80;99.90;;;;;;4980852;28;89809;-32
2022/01/10 02:25:43;;;;;;;17.27;11.52;;;1.80;99.90;;;;;;4980417;28;88144;-38
2022/01/10 02:28:09;;;;;;;20.13;12.05;;;1.80;99.90;;;;;;4980603;28;89810;-35
2022/01/10 02:30:35;;;;;;;24.77;12.63;;;1.70;99.90;;;;;;4980398;28;90288;-34
2022/01/10 02:33:01;;;;;;;24.05;11.98;;;1.80;99.90;;;;;;4979483;28;90016;-34
2022/01/10 02:35:35;;;;;;;28.20;13.02;;;1.70;99.90;;;;;;4983276;28;87553;-35
2022/01/10 02:38:01;;;;;;;30.48;13.07;;;1.70;99.90;;;;;;4983097;28;88361;-41
2022/01/10 02:40:29;;;;;;;20.83;11.60;;;1.70;99.90;;;;;;4983803;28;90198;-33
2022/01/10 02:42:55;;;;;;;;;;;1.70;99.90;;;;;;4983983;28;89724;-36
2022/01/10 02:45:21;;;;;;;26.27;11.65;;;1.70;99.90;;;;;;4985564;28;87653;-42
2022/01/10 02:47:48;;;;;;;36.15;13.63;;;1.70;99.90;;;;;;4983460;28;87925;-34
2022/01/10 02:50:16;;;;;;;25.15;11.85;;;1.70;99.90;;;;;;4983972;28;90297;-38
2022/01/10 02:52:41;;;;;;;34.60;13.50;;;1.60;99.90;;;;;;4983104;28;89709;-40
2022/01/10 02:55:08;;;;;;;30.75;13.45;;;1.70;99.90;;;;;;4983025;28;89320;-44
2022/01/10 02:57:34;;;;;;;28.75;14.38;;;1.60;99.90;;;;;;4983691;28;89460;-41
2022/01/10 03:00:06;;;;;;;25.05;13.43;;;1.60;99.90;;;;;;4982856;28;92447;-38
2022/01/10 03:02:34;;;;;;;18.80;12.40;;;1.70;99.90;;;;;;4983411;28;89731;-34
2022/01/10 03:04:59;;;;;;;20.02;12.30;;;1.70;99.90;;;;;;4983389;28;88413;-39
2022/01/10 03:07:27;;;;;;;27.52;13.57;;;1.60;99.90;;;;;;4982832;28;88893;-36
2022/01/10 03:09:53;;;;;;;28.30;12.60;;;1.70;99.90;;;;;;4983575;28;90176;-38
2022/01/10 03:12:19;;;;;;;28.33;12.70;;;1.60;99.90;;;;;;4983120;28;89479;-36
2022/01/10 03:14:45;;;;;;;24.27;12.98;;;1.60;99.90;;;;;;4983451;28;88362;-40
2022/01/10 03:17:11;;;;;;;23.25;13.80;;;1.60;99.90;;;;;;4983538;28;88788;-36
2022/01/10 03:19:38;;;;;;;29.48;14.13;;;1.60;99.90;;;;;;4982677;28;90680;-38
2022/01/10 03:22:05;;;;;;;28.08;13.48;;;1.60;99.90;;;;;;4982897;28;90202;-39
2022/01/10 03:24:31;;;;;;;31.23;14.05;;;1.50;99.90;;;;;;4983227;28;88347;-40
2022/01/10 03:26:56;;;;;;;25.17;14.63;;;1.50;99.90;;;;;;4982778;28;87910;-40
2022/01/10 03:29:22;;;;;;;24.02;14.07;;;1.50;99.90;;;;;;4983059;28;90612;-39
2022/01/10 03:31:48;;;;;;;20.48;13.60;;;1.50;99.90;;;;;;4983147;28;89658;-38
2022/01/10 03:34:14;;;;;;;27.33;14.98;;;1.50;99.90;;;;;;4982632;28;87461;-43
2022/01/10 03:36:41;;;;;;;33.60;14.77;;;1.40;99.90;;;;;;4983435;28;89300;-34
2022/01/10 03:39:06;;;;;;;23.73;15.13;;;1.40;99.90;;;;;;4982558;28;89215;-34
2022/01/10 03:41:33;;;;;;;25.40;14.98;;;1.40;99.90;;;;;;4982653;28;89491;-43
2022/01/10 03:43:58;;;;;;;28.08;15.73;;;1.50;99.90;;;;;;4983188;28;88668;-37
2022/01/10 03:46:24;;;;;;;25.25;15.13;;;1.50;99.90;;;;;;4981687;28;87808;-34
2022/01/10 03:48:50;;;;;;;27.50;15.38;;;1.40;99.90;;;;;;4982754;28;90464;-35
2022/01/10 03:51:15;;;;;;;26.33;14.52;;;1.40;99.90;;;;;;4981963;28;89909;-40
2022/01/10 03:53:41;;;;;;;22.60;11.88;;;1.30;99.90;;;;;;4982480;28;89066;-41
2022/01/10 03:56:06;;;;;;;20.98;14.30;;;1.30;99.90;;;;;;4981058;28;88563;-38
2022/01/10 03:58:32;;;;;;;28.70;16.08;;;1.30;99.90;;;;;;4981960;28;90331;-37
2022/01/10 04:00:59;;;;;;;21.25;15.15;;;1.20;99.90;;;;;;4983162;28;89046;-36
2022/01/10 04:03:25;;;;;;;23.30;15.50;;;1.20;99.90;;;;;;4981334;28;88578;-40
2022/01/10 04:05:50;;;;;;;22.85;15.07;;;1.20;99.90;;;;;;4982869;28;90401;-33
2022/01/10 04:08:16;;;;;;;28.85;16.45;;;1.20;99.90;;;;;;4981773;28;90154;-35
2022/01/10 04:10:41;;;;;;;31.95;16.33;;;1.30;99.90;;;;;;4982642;28;89776;-36
2022/01/10 04:13:07;;;;;;;25.10;15.43;;;1.30;99.90;;;;;;4982377;28;88493;-35
2022/01/10 04:15:33;;;;;;;24.02;17.02;;;1.20;99.90;;;;;;4980541;28;89584;-37
2022/01/10 04:18:01;;;;;;;25.85;15.68;;;1.20;99.90;;;;;;4982306;28;90289;-36
2022/01/10 04:20:27;;;;;;;28.70;14.88;;;1.20;99.90;;;;;;4982474;28;89704;-34
2022/01/10 04:22:52;;;;;;;27.88;15.82;;;1.20;99.90;;;;;;4982196;28;87982;-38
2022/01/10 04:25:19;;;;;;;20.25;15.32;;;1.20;99.90;;;;;;4982182;28;89158;-37
2022/01/10 04:27:45;;;;;;;32.38;17.00;;;1.20;99.90;;;;;;4981994;28;90677;-41
2022/01/10 04:30:11;;;;;;;27.67;16.25;;;1.20;99.90;;;;;;4981988;28;89652;-34
2022/01/10 04:32:38;;;;;;;26.20;18.33;;;1.20;99.90;;;;;;4981701;28;89641;-41
2022/01/10 04:35:05;;;;;;;35.97;17.65;;;1.20;99.90;;;;;;4981758;28;89573;-43
2022/01/10 04:37:31;;;;;;;34.47;18.83;;;1.20;99.90;;;;;;4980673;28;90604;-38
2022/01/10 04:39:56;;;;;;;30.02;18.38;;;1.20;99.90;;;;;;4981999;28;89848;-41
2022/01/10 04:42:22;;;;;;;33.40;16.70;;;1.20;99.90;;;;;;4981236;28;89266;-37
2022/01/10 04:44:49;;;;;;;30.50;18.00;;;1.20;99.90;;;;;;4982353;28;89446;-38
2022/01/10 04:47:15;;;;;;;33.45;18.95;;;1.20;99.90;;;;;;4981892;28;91610;-40
2022/01/10 04:52:33;;;;;;;31.75;18.00;;;1.20;99.90;;;;;;4956398;28;88795;-37
2022/01/10 04:54:59;;;;;;;31.15;17.00;;;1.10;99.90;;;;;;4981621;28;87910;-36
2022/01/10 04:57:25;;;;;;;29.50;17.65;;;1.10;99.90;;;;;;4980298;28;90435;-34
2022/01/10 04:59:51;;;;;;;35.95;19.77;;;1.10;99.90;;;;;;4981912;28;88554;-36
2022/01/10 05:02:17;;;;;;;34.08;18.83;;;1.10;99.90;;;;;;4981557;28;87556;-38
2022/01/10 05:04:43;;;;;;;24.75;18.05;;;1.10;99.90;;;;;;4982024;28;89915;-34
2022/01/10 05:07:09;;;;;;;39.00;17.63;;;1.10;99.90;;;;;;4981485;28;90343;-36
2022/01/10 05:09:35;;;;;;;25.60;19.42;;;1.00;99.90;;;;;;4981020;28;89488;-37
2022/01/10 05:12:01;;;;;;;28.90;18.75;;;1.00;99.90;;;;;;4981229;28;89067;-37
2022/01/10 05:14:26;;;;;;;31.25;19.27;;;1.00;99.90;;;;;;4980784;28;88880;-45
2022/01/10 05:16:52;;;;;;;31.77;19.90;;;1.00;99.90;;;;;;4981241;28;90424;-40
2022/01/10 05:19:18;;;;;;;26.10;18.75;;;1.00;99.90;;;;;;4981036;28;89506;-45
2022/01/10 05:21:44;;;;;;;30.30;17.85;;;1.00;99.90;;;;;;4981432;28;89388;-38
2022/01/10 05:24:10;;;;;;;34.25;19.30;;;1.00;99.90;;;;;;4980760;28;88399;-42
2022/01/10 05:26:35;;;;;;;36.58;20.38;;;0.90;99.90;;;;;;4981302;28;90459;-34
2022/01/10 05:29:02;;;;;;;32.95;20.77;;;0.90;99.90;;;;;;4981851;28;90307;-35
2022/01/10 05:31:30;;;;;;;36.08;21.13;;;0.90;99.90;;;;;;4980886;28;90544;-39
2022/01/10 05:33:56;;;;;;;32.13;20.53;;;0.90;99.90;;;;;;4980613;28;88531;-40
2022/01/10 05:36:22;;;;;;;42.22;20.23;;;0.90;99.90;;;;;;4981268;28;90216;-34
2022/01/10 05:38:48;;;;;;;32.38;19.67;;;0.90;99.90;;;;;;4980535;28;89732;-38
2022/01/10 05:41:14;;;;;;;33.92;21.33;;;0.90;99.90;;;;;;4981179;28;89551;-43
2022/01/10 05:43:39;;;;;;;35.30;21.20;;;0.90;99.90;;;;;;4980603;28;88318;-34
2022/01/10 05:46:09;;;;;;;37.08;20.73;;;0.90;99.90;;;;;;4980539;28;90323;-36
2022/01/10 05:48:36;;;;;;;39.22;20.55;;;0.90;99.90;;;;;;4980172;28;89815;-35
2022/01/10 05:51:02;;;;;;;38.97;20.13;;;0.90;99.90;;;;;;4980910;28;88513;-38
2022/01/10 05:53:28;;;;;;;38.53;20.20;;;0.90;99.90;;;;;;4980329;28;87803;-42
2022/01/10 05:55:53;;;;;;;27.55;19.38;;;0.80;99.90;;;;;;4980775;28;90376;-38
2022/01/10 05:58:19;;;;;;;31.00;19.77;;;0.80;99.90;;;;;;4980695;28;89711;-38
2022/01/10 06:00:45;;;;;;;35.85;20.23;;;0.80;99.90;;;;;;4980016;28;87957;-35
2022/01/10 06:03:11;;;;;;;32.22;20.15;;;0.80;99.90;;;;;;4980795;28;88034;-37
2022/01/10 06:05:37;;;;;;;34.22;21.08;;;0.80;99.90;;;;;;4980124;28;90310;-36
2022/01/10 06:08:05;;;;;;;33.17;18.75;;;0.80;99.90;;;;;;4981605;28;89361;-35
2022/01/10 06:10:31;;;;;;;30.98;20.30;;;0.70;99.90;;;;;;4983385;28;88306;-37
2022/01/10 06:12:58;;;;;;;30.95;19.75;;;0.70;99.90;;;;;;4932929;28;89448;-38
2022/01/10 06:15:23;;;;;;;33.30;20.45;;;0.70;99.90;;;;;;4983407;28;90115;-37
2022/01/10 06:17:49;;;;;;;27.80;19.95;;;0.70;99.90;;;;;;4984460;28;90985;-39
2022/01/10 06:20:16;;;;;;;31.88;20.15;;;0.70;99.90;;;;;;4984060;28;87657;-40
2022/01/10 06:22:42;;;;;;;28.80;20.13;;;0.70;99.90;;;;;;4983155;28;88626;-35
2022/01/10 06:25:09;;;;;;;30.75;21.23;;;0.60;99.90;;;;;;4984111;28;90318;-33
2022/01/10 06:27:35;;;;;;;39.58;22.52;;;0.60;99.90;;;;;;4983731;28;90170;-37
2022/01/10 06:30:01;;;;;;;29.60;20.67;;;0.70;99.90;;;;;;4983295;28;88055;-36
2022/01/10 06:32:27;;;;;;;28.63;21.50;;;0.70;99.90;;;;;;4983313;28;87838;-32
2022/01/10 06:34:52;;;;;;;27.63;20.05;;;0.60;99.90;;;;;;4983114;28;90226;-36
2022/01/10 06:37:19;;;;;;;31.50;20.17;;;0.70;99.90;;;;;;4984078;28;89815;-36
2022/01/10 06:39:45;;;;;;;27.80;20.27;;;0.70;99.90;;;;;;4983898;28;88603;-40
2022/01/10 06:42:10;;;;;;;31.70;19.67;;;0.60;99.90;;;;;;4984320;28;89038;-36
2022/01/10 06:44:36;;;;;;;31.63;20.48;;;0.60;99.90;;;;;;4920582;28;89301;-40
2022/01/10 06:47:02;;;;;;;29.05;20.55;;;0.60;99.90;;;;;;4994317;28;88651;-37
2022/01/10 06:49:28;;;;;;;28.48;19.80;;;0.60;99.90;;;;;;4983282;28;88638;-37
2022/01/10 06:51:54;;;;;;;23.48;18.42;;;0.50;99.90;;;;;;4983387;28;88583;-32
2022/01/10 06:54:20;;;;;;;29.70;18.17;;;0.50;99.90;;;;;;4982552;28;90150;-44
2022/01/10 06:56:45;;;;;;;26.92;19.23;;;0.50;99.90;;;;;;4983134;28;89597;-36
2022/01/10 06:59:11;;;;;;;25.48;17.63;;;0.50;99.90;;;;;;4982380;28;87561;-37
2022/01/10 07:01:37;;;;;;;28.35;19.38;;;0.40;99.90;;;;;;4982530;28;89730;-34
2022/01/10 07:04:02;;;;;;;29.23;19.55;;;0.40;99.90;;;;;;4982144;28;89155;-33
2022/01/10 07:06:28;;;;;;;29.20;20.48;;;0.40;99.90;;;;;;4982850;28;89167;-44
2022/01/10 07:08:54;;;;;;;26.60;19.45;;;0.40;99.90;;;;;;4979382;28;89140;-39
2022/01/10 07:11:19;;;;;;;31.50;23.27;;;0.40;99.90;;;;;;4965952;28;89407;-43
2022/01/10 07:13:45;;;;;;;35.70;21.35;;;0.40;99.90;;;;;;4963217;28;92097;-34
2022/01/10 07:16:12;;;;;;;33.40;23.15;;;0.40;99.90;;;;;;4963008;28;89541;-33
2022/01/10 07:18:38;;;;;;;30.70;22.00;;;0.40;99.90;;;;;;4962829;28;89099;-41
2022/01/10 07:21:03;;;;;;;29.85;22.08;;;0.50;99.90;;;;;;4962642;28;88783;-33
2022/01/10 07:23:29;;;;;;;34.17;23.02;;;0.50;99.90;;;;;;4962704;28;90815;-34
2022/01/10 07:25:55;;;;;;;28.35;21.17;;;0.50;99.90;;;;;;4962109;28;89828;-40
2022/01/10 07:28:21;;;;;;;32.92;23.05;;;0.50;99.90;;;;;;4961966;28;88281;-34
2022/01/10 07:30:49;;;;;;;30.83;24.23;;;0.50;99.90;;;;;;4963495;28;89830;-33
2022/01/10 07:33:14;;;;;;;32.13;24.03;;;0.50;99.90;;;;;;4963084;28;90021;-36
2022/01/10 07:35:40;;;;;;;30.15;23.20;;;0.60;99.90;;;;;;4962045;28;89514;-40
2022/01/10 07:38:06;;;;;;;32.50;22.75;;;0.60;99.90;;;;;;4963569;28;89072;-36
2022/01/10 07:40:31;;;;;;;29.95;22.83;;;0.60;99.90;;;;;;4962819;28;89282;-35
2022/01/10 07:42:57;;;;;;;29.75;23.60;;;0.60;99.90;;;;;;4963161;28;90623;-36
2022/01/10 07:45:22;;;;;;;27.80;23.88;;;0.60;99.90;;;;;;4963213;28;89639;-36
2022/01/10 07:47:48;;;;;;;32.78;23.50;;;0.60;99.90;;;;;;4962347;28;88338;-40
2022/01/10 07:50:14;;;;;;;33.88;21.65;;;0.60;99.90;;;;;;4962767;28;88859;-36
2022/01/10 07:52:40;;;;;;;27.88;21.52;;;0.50;99.90;;;;;;4962031;28;90015;-39
2022/01/10 07:55:06;;;;;;;32.85;22.30;;;0.50;99.90;;;;;;4962647;28;90141;-44
2022/01/10 07:57:32;;;;;;;30.48;19.90;;;0.50;99.90;;;;;;4970403;28;87681;-39
2022/01/10 07:59:57;;;;;;;29.92;20.90;;;0.40;99.90;;;;;;4961857;28;87984;-41
2022/01/10 08:02:24;;;;;;;29.65;20.85;;;0.40;99.90;;;;;;4960683;28;89886;-40
2022/01/10 08:04:49;;;;;;;32.53;20.98;;;0.40;99.90;;;;;;4959766;28;89680;-42
2022/01/10 08:07:15;;;;;;;33.35;23.02;;;0.40;99.90;;;;;;4960719;28;88851;-40
2022/01/10 08:09:41;;;;;;;26.98;21.08;;;0.40;99.90;;;;;;4960344;28;88232;-36
2022/01/10 08:12:07;;;;;;;35.00;23.60;;;0.40;99.90;;;;;;4959666;28;90098;-32
2022/01/10 08:14:33;;;;;;;31.48;22.35;;;0.40;99.90;;;;;;4959935;28;89622;-35
2022/01/10 08:16:59;;;;;;;28.05;21.55;;;0.40;99.90;;;;;;4960185;28;88732;-38
2022/01/10 08:19:26;;;;;;;28.77;23.65;;;0.40;99.90;;;;;;4960535;28;88835;-35
2022/01/10 08:21:55;;;;;;;25.95;22.10;;;0.40;99.90;;;;;;4960010;28;90271;-39
2022/01/10 08:24:22;;;;;;;25.33;21.70;;;0.40;99.90;;;;;;4959653;28;89381;-40
2022/01/10 08:26:48;;;;;;;37.15;23.08;;;0.40;99.90;;;;;;4959719;28;87524;-40
2022/01/10 08:29:14;;;;;;;31.85;23.13;;;0.50;99.90;;;;;;4960314;28;90350;-36
2022/01/10 08:31:39;;;;;;;32.63;22.80;;;0.40;99.90;;;;;;4958923;28;91425;-37
2022/01/10 08:34:06;;;;;;;27.25;22.20;;;0.50;99.90;;;;;;4959624;28;89666;-36
2022/01/10 08:36:32;;;;;;;24.17;21.73;;;0.50;99.90;;;;;;4970307;28;89096;-41
2022/01/10 08:38:58;;;;;;;24.92;22.23;;;0.50;99.90;;;;;;4919073;27;89516;-35
2022/01/10 08:41:23;;;;;;;33.03;22.75;;;0.50;99.90;;;;;;4959235;28;89947;-41
2022/01/10 08:43:49;;;;;;;31.23;24.85;;;0.60;99.90;;;;;;4960036;28;90245;-39
2022/01/10 08:46:15;;;;;;;28.30;25.02;;;0.60;99.90;;;;;;4959519;28;88870;-38
2022/01/10 08:48:41;;;;;;;28.95;25.90;;;0.60;99.90;;;;;;4959747;28;90019;-37
2022/01/10 08:51:07;;;;;;;35.28;26.08;;;0.70;99.90;;;;;;4959525;28;90160;-40
2022/01/10 08:53:33;;;;;;;32.55;26.13;;;0.80;99.90;;;;;;4959533;28;89225;-34
2022/01/10 08:55:59;;;;;;;50.58;28.73;;;0.90;99.90;;;;;;4959772;28;88257;-36
2022/01/10 08:58:26;;;;;;;209.80;46.70;;;0.90;99.90;;;;;;4957457;28;89308;-34
2022/01/10 09:00:52;;;;;;;96.55;35.97;;;1.00;99.90;;;;;;4959543;28;90197;-38
2022/01/10 09:03:18;;;;;;;155.77;42.22;;;1.10;99.90;;;;;;4960001;28;90663;-43
2022/01/10 09:05:44;;;;;;;304.65;71.28;;;1.20;99.90;;;;;;4957885;28;88286;-37
2022/01/10 09:08:10;;;;;;;37.28;28.38;;;1.20;99.90;;;;;;4959314;28;89422;-35
2022/01/10 09:10:35;;;;;;;36.47;29.63;;;1.30;99.90;;;;;;4958573;28;90312;-41
2022/01/10 09:13:01;;;;;;;33.65;28.00;;;1.40;99.90;;;;;;4958838;28;90609;-42
2022/01/10 09:15:27;;;;;;;33.95;29.88;;;1.40;99.90;;;;;;4959112;28;89849;-38
2022/01/10 09:17:52;;;;;;;37.95;30.30;;;1.50;99.90;;;;;;4958876;28;88382;-41
2022/01/10 09:20:19;;;;;;;171.00;52.70;;;1.60;99.90;;;;;;4958643;28;90414;-43
2022/01/10 09:22:44;;;;;;;39.95;30.33;;;1.80;99.90;;;;;;4959040;28;90216;-42
2022/01/10 09:25:10;;;;;;;36.80;29.67;;;2.00;99.90;;;;;;4959010;28;88519;-39
2022/01/10 09:27:35;;;;;;;40.42;30.70;;;2.30;99.90;;;;;;4958971;28;88839;-41
2022/01/10 09:30:03;;;;;;;34.45;29.05;;;2.60;99.90;;;;;;4958751;28;90540;-43
2022/01/10 09:32:29;;;;;;;37.55;30.00;;;2.80;99.90;;;;;;4958722;28;89842;-42
2022/01/10 09:34:55;;;;;;;39.95;28.42;;;3.00;99.90;;;;;;4957653;28;89358;-40
2022/01/10 09:37:21;;;;;;;35.95;30.02;;;3.10;99.90;;;;;;4958809;28;89831;-42
2022/01/10 09:39:47;;;;;;;35.97;31.77;;;3.20;99.90;;;;;;4958873;28;90047;-40
2022/01/10 09:42:13;;;;;;;34.50;28.48;;;3.30;99.90;;;;;;4958114;28;90892;-42
2022/01/10 09:44:40;;;;;;;34.58;30.30;;;3.20;99.90;;;;;;4959131;28;87601;-38
2022/01/10 09:47:05;;;;;;;34.25;30.55;;;3.10;99.90;;;;;;4959266;28;89058;-37
2022/01/10 09:52:05;;;;;;;38.42;30.40;;;3.10;99.90;;;;;;4974695;28;92064;-39
2022/01/10 09:54:32;;;;;;;43.10;30.02;;;3.10;99.90;;;;;;4977004;28;89736;-39
2022/01/10 09:56:57;;;;;;;38.50;30.73;;;3.00;99.90;;;;;;4977881;28;89377;-45
2022/01/10 09:59:23;;;;;;;39.83;31.15;;;3.00;99.90;;;;;;4977786;28;90184;-40
2022/01/10 10:01:50;;;;;;;42.75;31.95;;;3.00;99.90;;;;;;4978199;28;89736;-44
2022/01/10 10:04:17;;;;;;;38.65;31.00;;;2.90;99.90;;;;;;4978240;28;88424;-38
2022/01/10 10:06:45;;;;;;;43.78;31.10;;;2.90;99.90;;;;;;4978922;28;89596;-38
2022/01/10 10:09:10;;;;;;;43.75;32.47;;;2.90;99.90;;;;;;4978393;28;90579;-42
2022/01/10 10:11:42;;;;;;;41.22;31.30;;;2.90;99.90;;;;;;4977948;28;89583;-40
2022/01/10 10:14:09;;;;;;;41.67;32.55;;;2.90;99.90;;;;;;4977964;28;88974;-44
2022/01/10 10:16:36;;;;;;;41.63;33.15;;;2.90;99.90;;;;;;4978334;28;89194;-43
2022/01/10 10:19:05;;;;;;;39.58;29.27;;;3.00;99.90;;;;;;4978600;28;90665;-35
2022/01/10 10:21:32;;;;;;;36.33;30.65;;;3.00;99.90;;;;;;4978523;28;88568;-42
2022/01/10 10:23:58;;;;;;;40.47;31.98;;;3.00;99.90;;;;;;4977668;28;90157;-35
2022/01/10 10:26:26;;;;;;;45.15;32.15;;;3.10;99.90;;;;;;4978291;28;87670;-42
2022/01/10 10:28:53;;;;;;;38.55;32.78;;;3.10;99.90;;;;;;4979623;28;90236;-35
2022/01/10 10:31:46;;;;;;;40.47;33.03;;;3.20;99.90;;;;;;4977670;28;88941;-41
2022/01/10 10:34:21;;;;;;;35.40;31.23;;;3.20;99.90;;;;;;4967796;28;87545;-43
2022/01/10 10:37:07;;;;;;;49.45;31.05;;;3.30;99.90;;;;;;4978036;28;88715;-41
2022/01/10 10:39:35;;;;;;;43.67;31.58;;;3.40;99.90;;;;;;4977418;28;89045;-36
2022/01/10 10:42:03;;;;;;;43.95;32.53;;;3.50;99.90;;;;;;4978370;28;89621;-40
2022/01/10 10:44:29;;;;;;;46.38;31.98;;;3.60;99.90;;;;;;4978119;28;88096;-38
2022/01/10 10:46:56;;;;;;;42.17;33.25;;;3.60;99.90;;;;;;4978019;28;88202;-41
2022/01/10 10:49:31;;;;;;;39.10;31.60;;;3.70;99.90;;;;;;4977049;28;90042;-36
2022/01/10 10:51:57;;;;;;;33.40;30.02;;;3.70;99.90;;;;;;4994404;28;89611;-38
2022/01/10 10:54:24;;;;;;;53.83;33.95;;;3.80;99.90;;;;;;4997010;28;89601;-40
2022/01/10 10:56:49;;;;;;;44.20;31.13;;;3.80;99.90;;;;;;5001502;28;89972;-42
2022/01/10 10:59:15;;;;;;;37.80;30.60;;;3.90;99.90;;;;;;5001497;28;90584;-34
2022/01/10 11:01:42;;;;;;;40.53;31.80;;;3.90;99.90;;;;;;5000708;28;89663;-42
2022/01/10 11:04:11;;;;;;;36.85;32.38;;;4.00;99.90;;;;;;5000517;28;88865;-44
2022/01/10 11:06:38;;;;;;;43.38;32.33;;;4.10;99.90;;;;;;5001283;28;88593;-40
2022/01/10 11:09:06;;;;;;;43.67;30.38;;;4.10;99.90;;;;;;5000753;28;90553;-37
2022/01/10 11:11:33;;;;;;;46.67;32.35;;;4.20;99.90;;;;;;5001723;28;89726;-34
2022/01/10 11:14:00;;;;;;;39.13;31.50;;;4.30;99.90;;;;;;5000825;28;88501;-41
2022/01/10 11:16:26;;;;;;;47.88;32.35;;;4.40;99.90;;;;;;5001018;28;88620;-41
2022/01/10 11:18:53;;;;;;;36.70;31.27;;;4.50;99.90;;;;;;5000912;28;88975;-38
2022/01/10 11:21:19;;;;;;;43.30;31.45;;;4.60;99.90;;;;;;5000525;28;89653;-35
2022/01/10 11:23:46;;;;;;;39.25;29.83;;;4.60;99.90;;;;;;5001382;28;89713;-38
2022/01/10 11:26:15;;;;;;;44.58;31.92;;;4.70;99.90;;;;;;5000700;28;89507;-32
2022/01/10 11:28:55;;;;;;;46.15;32.05;;;4.80;99.90;;;;;;4999883;28;90020;-37
2022/01/10 11:31:26;;;;;;;39.22;29.73;;;4.90;99.90;;;;;;5000558;28;89704;-37
2022/01/10 11:33:55;;;;;;;39.33;30.92;;;4.90;99.90;;;;;;5001432;28;88483;-37
2022/01/10 11:36:24;;;;;;;35.55;30.25;;;4.90;99.90;;;;;;5000760;28;90266;-41
2022/01/10 11:38:53;;;;;;;41.92;31.35;;;4.90;99.90;;;;;;5000509;28;90109;-32
2022/01/10 11:41:21;;;;;;;36.13;27.98;;;5.00;99.90;;;;;;5000115;28;89621;-45
2022/01/10 11:43:52;;;;;;;33.15;27.55;;;5.10;99.90;;;;;;5000288;28;88206;-38
2022/01/10 11:46:46;;;;;;;38.25;31.15;;;5.30;99.90;;;;;;5000685;28;88658;-43
2022/01/10 11:49:18;;;;;;;44.63;26.80;;;5.40;99.90;;;;;;4994592;28;89902;-38
2022/01/10 11:51:49;;;;;;;47.70;30.45;;;5.50;99.90;;;;;;4999602;28;89874;-41
2022/01/10 11:54:26;;;;;;;46.50;30.45;;;5.60;99.90;;;;;;4999943;28;89373;-40
2022/01/10 11:57:03;;;;;;;39.10;28.92;;;5.70;99.90;;;;;;5000157;28;89228;-39
2022/01/10 11:59:33;;;;;;;44.63;30.95;;;5.70;99.90;;;;;;4999506;28;89134;-44
2022/01/10 12:02:10;;;;;;;44.35;29.83;;;5.70;99.90;;;;;;5000011;28;89486;-40
2022/01/10 12:04:47;;;;;;;39.50;28.42;;;5.80;99.90;;;;;;5000179;28;88400;-36
2022/01/10 12:07:19;;;;;;;40.13;28.70;;;5.90;99.90;;;;;;5000211;28;90267;-36
2022/01/10 12:09:45;;;;;;;37.13;28.83;;;5.90;99.90;;;;;;4999774;28;88783;-41
2022/01/10 12:12:18;;;;;;;39.28;29.38;;;5.90;99.90;;;;;;5000343;28;89981;-36
2022/01/10 12:14:45;;;;;;;36.67;28.95;;;5.90;99.90;;;;;;4999289;28;88183;-39
2022/01/10 12:17:12;;;;;;;44.03;29.55;;;5.90;99.90;;;;;;5000463;28;88702;-40
2022/01/10 12:19:39;;;;;;;37.70;28.27;;;5.90;99.90;;;;;;4999533;28;89008;-41
2022/01/10 12:22:06;;;;;;;35.63;28.70;;;5.90;99.90;;;;;;4999290;28;89801;-38
2022/01/10 12:24:33;;;;;;;33.08;29.25;;;6.00;99.90;;;;;;4999615;28;87997;-37
2022/01/10 12:27:01;;;;;;;40.08;30.98;;;6.00;99.90;;;;;;4999950;28;87969;-35
2022/01/10 12:29:31;;;;;;;34.25;29.00;;;6.00;99.90;;;;;;4981174;28;90284;-34
2022/01/10 12:31:58;;;;;;;38.58;31.73;;;6.00;99.90;;;;;;4999097;28;88594;-40
2022/01/10 12:34:23;;;;;;;35.38;27.35;;;6.10;99.90;;;;;;4999376;28;88447;-43
2022/01/10 12:36:49;;;;;;;37.15;25.88;;;6.10;99.90;;;;;;5000096;28;88292;-37
2022/01/10 12:39:21;;;;;;;35.53;27.40;;;6.20;99.90;;;;;;4998764;28;90377;-38
2022/01/10 12:41:48;;;;;;;36.33;29.15;;;6.20;99.90;;;;;;4999430;28;91294;-38
2022/01/10 12:44:14;;;;;;;37.50;27.25;;;6.20;99.90;;;;;;4999547;28;89062;-37
2022/01/10 12:46:40;;;;;;;40.53;29.20;;;6.30;99.90;;;;;;5000236;28;88540;-41
2022/01/10 12:49:08;;;;;;;38.88;26.38;;;6.20;99.90;;;;;;4999250;28;90387;-39
2022/01/10 12:51:37;;;;;;;32.42;25.30;;;6.20;99.90;;;;;;4997177;28;90064;-37
2022/01/10 12:54:15;;;;;;;29.10;25.08;;;6.10;99.90;;;;;;4998708;28;89476;-35